sensor_id;sensor_type;location;lat;lon;timestamp;pressure;altitude;pressure_sealevel;temperature;humidity
8334;BME280;4204;43.004;23.052;2023-05-14T00:01:33;94233.03;;;15.29;100.00
8334;BME280;4204;43.004;23.052;2023-05-14T00:04:01;94233.41;;;15.19;100.00
8334;BME280;4204;43.004;23.052;2023-05-14T00:06:31;94221.78;;;15.15;100.00
8334;BME280;4204;43.004;23.052;2023-05-14T00:08:58;94216.34;;;15.23;100.00
8334;BME280;4204;43.004;23.052;2023-05-14T00:11:26;94207.94;;;15.13;100.00
8334;BME280;4204;43.004;23.052;2023-05-14T00:13:54;94203.94;;;15.19;100.00
8334;BME280;4204;43.004;23.052;2023-05-14T00:16:21;94215.09;;;15.21;100.00
8334;BME280;4204;43.004;23.052;2023-05-14T00:18:49;94208.84;;;15.17;100.00
8334;BME280;4204;43.004;23.052;2023-05-14T00:21:17;94207.75;;;15.18;100.00
8334;BME280;4204;43.004;23.052;2023-05-14T00:23:46;94214.66;;;15.19;100.00
8334;BME280;4204;43.004;23.052;2023-05-14T00:26:13;94205.16;;;15.09;100.00
8334;BME280;4204;43.004;23.052;2023-05-14T00:28:43;94206.91;;;14.93;100.00
8334;BME280;4204;43.004;23.052;2023-05-14T00:31:12;94202.25;;;14.82;100.00
8334;BME280;4204;43.004;23.052;2023-05-14T00:33:40;94198.81;;;14.81;100.00
8334;BME280;4204;43.004;23.052;2023-05-14T00:36:08;94197.16;;;14.89;100.00
8334;BME280;4204;43.004;23.052;2023-05-14T00:38:36;94202.03;;;15.07;100.00
8334;BME280;4204;43.004;23.052;2023-05-14T00:41:05;94190.78;;;15.14;100.00
8334;BME280;4204;43.004;23.052;2023-05-14T00:43:33;94182.28;;;15.12;100.00
8334;BME280;4204;43.004;23.052;2023-05-14T00:46:00;94171.19;;;15.01;100.00
8334;BME280;4204;43.004;23.052;2023-05-14T00:48:28;94174.44;;;15.07;100.00
8334;BME280;4204;43.004;23.052;2023-05-14T00:50:56;94177.00;;;15.03;100.00
8334;BME280;4204;43.004;23.052;2023-05-14T00:53:26;94174.06;;;14.96;100.00
8334;BME280;4204;43.004;23.052;2023-05-14T00:55:54;94173.78;;;14.98;100.00
8334;BME280;4204;43.004;23.052;2023-05-14T00:58:24;94177.34;;;15.02;100.00
8334;BME280;4204;43.004;23.052;2023-05-14T01:00:52;94180.22;;;14.97;100.00
8334;BME280;4204;43.004;23.052;2023-05-14T01:03:19;94190.75;;;15.02;100.00
8334;BME280;4204;43.004;23.052;2023-05-14T01:05:54;94179.31;;;14.93;100.00
8334;BME280;4204;43.004;23.052;2023-05-14T01:08:29;94189.06;;;14.97;100.00
8334;BME280;4204;43.004;23.052;2023-05-14T01:11:03;94192.19;;;14.99;100.00
8334;BME280;4204;43.004;23.052;2023-05-14T01:13:43;94209.72;;;15.09;100.00
8334;BME280;4204;43.004;23.052;2023-05-14T01:16:17;94197.19;;;15.01;100.00
8334;BME280;4204;43.004;23.052;2023-05-14T01:18:47;94204.00;;;14.98;100.00
8334;BME280;4204;43.004;23.052;2023-05-14T01:21:32;94192.84;;;15.08;100.00
8334;BME280;4204;43.004;23.052;2023-05-14T01:24:00;94193.97;;;14.95;100.00
8334;BME280;4204;43.004;23.052;2023-05-14T01:26:28;94199.44;;;14.99;100.00
8334;BME280;4204;43.004;23.052;2023-05-14T01:29:01;94200.59;;;15.10;100.00
8334;BME280;4204;43.004;23.052;2023-05-14T01:31:32;94196.31;;;15.09;100.00
8334;BME280;4204;43.004;23.052;2023-05-14T01:34:03;94194.63;;;15.04;100.00
8334;BME280;4204;43.004;23.052;2023-05-14T01:36:34;94185.94;;;15.07;100.00
8334;BME280;4204;43.004;23.052;2023-05-14T01:39:02;94189.78;;;14.86;100.00
8334;BME280;4204;43.004;23.052;2023-05-14T01:41:30;94184.47;;;14.98;100.00
8334;BME280;4204;43.004;23.052;2023-05-14T01:44:00;94189.13;;;14.89;100.00
8334;BME280;4204;43.004;23.052;2023-05-14T01:46:30;94183.00;;;14.88;100.00
8334;BME280;4204;43.004;23.052;2023-05-14T01:48:58;94191.41;;;14.66;100.00
8334;BME280;4204;43.004;23.052;2023-05-14T01:51:26;94178.19;;;14.61;100.00
8334;BME280;4204;43.004;23.052;2023-05-14T01:53:55;94180.00;;;14.69;100.00
8334;BME280;4204;43.004;23.052;2023-05-14T01:56:23;94181.03;;;14.65;100.00
8334;BME280;4204;43.004;23.052;2023-05-14T01:58:51;94178.56;;;14.72;100.00
8334;BME280;4204;43.004;23.052;2023-05-14T02:01:19;94175.03;;;14.80;100.00
8334;BME280;4204;43.004;23.052;2023-05-14T02:03:47;94172.34;;;14.80;100.00
8334;BME280;4204;43.004;23.052;2023-05-14T02:06:15;94179.75;;;14.83;100.00
8334;BME280;4204;43.004;23.052;2023-05-14T02:08:42;94178.78;;;14.67;100.00
8334;BME280;4204;43.004;23.052;2023-05-14T02:11:11;94175.72;;;14.77;100.00
8334;BME280;4204;43.004;23.052;2023-05-14T02:13:39;94182.69;;;14.69;100.00
8334;BME280;4204;43.004;23.052;2023-05-14T02:16:07;94180.69;;;14.66;100.00
8334;BME280;4204;43.004;23.052;2023-05-14T02:18:35;94178.00;;;14.66;100.00
8334;BME280;4204;43.004;23.052;2023-05-14T02:21:03;94153.78;;;14.63;100.00
8334;BME280;4204;43.004;23.052;2023-05-14T02:23:31;94184.38;;;14.74;100.00
8334;BME280;4204;43.004;23.052;2023-05-14T02:25:59;94196.34;;;14.76;100.00
8334;BME280;4204;43.004;23.052;2023-05-14T02:28:28;94206.78;;;14.69;100.00
8334;BME280;4204;43.004;23.052;2023-05-14T02:30:57;94213.84;;;14.74;100.00
8334;BME280;4204;43.004;23.052;2023-05-14T02:33:25;94205.81;;;14.74;100.00
8334;BME280;4204;43.004;23.052;2023-05-14T02:35:53;94201.56;;;14.73;100.00
8334;BME280;4204;43.004;23.052;2023-05-14T02:38:21;94205.22;;;14.68;100.00
8334;BME280;4204;43.004;23.052;2023-05-14T02:40:49;94201.56;;;14.73;100.00
8334;BME280;4204;43.004;23.052;2023-05-14T02:43:17;94196.53;;;14.71;100.00
8334;BME280;4204;43.004;23.052;2023-05-14T02:45:46;94202.69;;;14.72;100.00
8334;BME280;4204;43.004;23.052;2023-05-14T02:48:14;94184.59;;;14.69;100.00
8334;BME280;4204;43.004;23.052;2023-05-14T02:50:41;94198.91;;;14.73;100.00
8334;BME280;4204;43.004;23.052;2023-05-14T02:53:09;94200.84;;;14.64;100.00
8334;BME280;4204;43.004;23.052;2023-05-14T02:55:37;94208.38;;;14.70;100.00
8334;BME280;4204;43.004;23.052;2023-05-14T02:58:05;94207.72;;;14.52;100.00
8334;BME280;4204;43.004;23.052;2023-05-14T03:00:32;94207.72;;;14.52;100.00
8334;BME280;4204;43.004;23.052;2023-05-14T03:03:01;94214.00;;;14.56;100.00
8334;BME280;4204;43.004;23.052;2023-05-14T03:05:29;94218.81;;;14.42;100.00
8334;BME280;4204;43.004;23.052;2023-05-14T03:07:57;94206.16;;;14.31;100.00
8334;BME280;4204;43.004;23.052;2023-05-14T03:10:25;94212.53;;;14.38;100.00
8334;BME280;4204;43.004;23.052;2023-05-14T03:12:53;94212.81;;;14.45;100.00
8334;BME280;4204;43.004;23.052;2023-05-14T03:15:20;94196.81;;;14.37;100.00
8334;BME280;4204;43.004;23.052;2023-05-14T03:17:49;94198.63;;;14.24;100.00
8334;BME280;4204;43.004;23.052;2023-05-14T03:20:18;94205.56;;;14.25;100.00
8334;BME280;4204;43.004;23.052;2023-05-14T03:22:46;94200.25;;;14.17;100.00
8334;BME280;4204;43.004;23.052;2023-05-14T03:25:14;94203.50;;;14.02;100.00
8334;BME280;4204;43.004;23.052;2023-05-14T03:27:42;94208.34;;;14.08;100.00
8334;BME280;4204;43.004;23.052;2023-05-14T03:30:10;94208.97;;;14.05;100.00
8334;BME280;4204;43.004;23.052;2023-05-14T03:32:39;94199.97;;;14.10;100.00
8334;BME280;4204;43.004;23.052;2023-05-14T03:35:08;94202.19;;;14.08;100.00
8334;BME280;4204;43.004;23.052;2023-05-14T03:37:37;94202.34;;;14.32;100.00
8334;BME280;4204;43.004;23.052;2023-05-14T03:40:06;94195.69;;;14.17;100.00
8334;BME280;4204;43.004;23.052;2023-05-14T03:42:36;94206.53;;;14.21;100.00
8334;BME280;4204;43.004;23.052;2023-05-14T03:45:04;94205.81;;;14.32;100.00
8334;BME280;4204;43.004;23.052;2023-05-14T03:47:32;94206.44;;;14.38;100.00
8334;BME280;4204;43.004;23.052;2023-05-14T03:50:01;94213.06;;;14.32;100.00
8334;BME280;4204;43.004;23.052;2023-05-14T03:52:29;94205.84;;;14.24;100.00
8334;BME280;4204;43.004;23.052;2023-05-14T03:54:58;94210.25;;;14.28;100.00
8334;BME280;4204;43.004;23.052;2023-05-14T03:57:26;94213.16;;;14.15;100.00
8334;BME280;4204;43.004;23.052;2023-05-14T03:59:53;94208.91;;;14.14;100.00
8334;BME280;4204;43.004;23.052;2023-05-14T04:02:21;94203.44;;;14.10;100.00
8334;BME280;4204;43.004;23.052;2023-05-14T04:04:49;94211.84;;;14.00;100.00
8334;BME280;4204;43.004;23.052;2023-05-14T04:07:19;94219.25;;;13.95;100.00
8334;BME280;4204;43.004;23.052;2023-05-14T04:09:47;94216.13;;;13.93;100.00
8334;BME280;4204;43.004;23.052;2023-05-14T04:12:16;94218.28;;;13.99;100.00
8334;BME280;4204;43.004;23.052;2023-05-14T04:14:44;94219.13;;;13.91;100.00
8334;BME280;4204;43.004;23.052;2023-05-14T04:17:11;94226.56;;;13.86;100.00
8334;BME280;4204;43.004;23.052;2023-05-14T04:19:39;94225.75;;;13.56;100.00
8334;BME280;4204;43.004;23.052;2023-05-14T04:22:07;94229.34;;;13.60;100.00
8334;BME280;4204;43.004;23.052;2023-05-14T04:24:34;94220.59;;;13.51;100.00
8334;BME280;4204;43.004;23.052;2023-05-14T04:27:03;94233.75;;;13.56;100.00
8334;BME280;4204;43.004;23.052;2023-05-14T04:29:32;94232.31;;;13.67;100.00
8334;BME280;4204;43.004;23.052;2023-05-14T04:32:00;94234.47;;;13.73;100.00
8334;BME280;4204;43.004;23.052;2023-05-14T04:34:28;94233.19;;;13.79;100.00
8334;BME280;4204;43.004;23.052;2023-05-14T04:36:56;94234.16;;;13.75;100.00
8334;BME280;4204;43.004;23.052;2023-05-14T04:39:23;94250.28;;;13.87;100.00
8334;BME280;4204;43.004;23.052;2023-05-14T04:41:51;94253.75;;;13.88;100.00
8334;BME280;4204;43.004;23.052;2023-05-14T04:44:19;94265.44;;;13.74;100.00
8334;BME280;4204;43.004;23.052;2023-05-14T04:46:48;94266.78;;;13.89;100.00
8334;BME280;4204;43.004;23.052;2023-05-14T04:49:15;94272.50;;;13.79;100.00
8334;BME280;4204;43.004;23.052;2023-05-14T04:51:43;94275.47;;;13.86;100.00
8334;BME280;4204;43.004;23.052;2023-05-14T04:54:11;94284.25;;;13.87;100.00
8334;BME280;4204;43.004;23.052;2023-05-14T04:56:38;94295.00;;;13.78;100.00
8334;BME280;4204;43.004;23.052;2023-05-14T04:59:06;94296.72;;;13.74;100.00
8334;BME280;4204;43.004;23.052;2023-05-14T05:01:34;94301.69;;;13.55;100.00
8334;BME280;4204;43.004;23.052;2023-05-14T05:04:03;94303.09;;;13.52;100.00
8334;BME280;4204;43.004;23.052;2023-05-14T05:06:31;94318.44;;;13.18;100.00
8334;BME280;4204;43.004;23.052;2023-05-14T05:08:59;94313.06;;;13.00;100.00
8334;BME280;4204;43.004;23.052;2023-05-14T05:11:26;94322.94;;;13.00;100.00
8334;BME280;4204;43.004;23.052;2023-05-14T05:13:54;94300.03;;;12.82;100.00
8334;BME280;4204;43.004;23.052;2023-05-14T05:16:22;94317.78;;;12.86;100.00
8334;BME280;4204;43.004;23.052;2023-05-14T05:18:50;94317.94;;;12.81;100.00
8334;BME280;4204;43.004;23.052;2023-05-14T05:21:19;94316.53;;;12.84;100.00
8334;BME280;4204;43.004;23.052;2023-05-14T05:23:47;94308.19;;;12.51;100.00
8334;BME280;4204;43.004;23.052;2023-05-14T05:26:15;94303.75;;;12.38;100.00
8334;BME280;4204;43.004;23.052;2023-05-14T05:28:43;94308.97;;;12.43;100.00
8334;BME280;4204;43.004;23.052;2023-05-14T05:31:11;94312.25;;;12.49;100.00
8334;BME280;4204;43.004;23.052;2023-05-14T05:33:39;94327.78;;;12.47;100.00
8334;BME280;4204;43.004;23.052;2023-05-14T05:36:09;94319.44;;;12.40;100.00
8334;BME280;4204;43.004;23.052;2023-05-14T05:38:39;94309.69;;;12.18;100.00
8334;BME280;4204;43.004;23.052;2023-05-14T05:41:06;94321.13;;;12.10;100.00
8334;BME280;4204;43.004;23.052;2023-05-14T05:43:34;94321.56;;;12.03;100.00
8334;BME280;4204;43.004;23.052;2023-05-14T05:46:02;94332.19;;;11.95;100.00
8334;BME280;4204;43.004;23.052;2023-05-14T05:48:30;94328.06;;;11.80;100.00
8334;BME280;4204;43.004;23.052;2023-05-14T05:50:58;94314.00;;;11.97;100.00
8334;BME280;4204;43.004;23.052;2023-05-14T05:53:25;94320.28;;;12.01;100.00
8334;BME280;4204;43.004;23.052;2023-05-14T05:55:55;94314.84;;;12.23;100.00
8334;BME280;4204;43.004;23.052;2023-05-14T05:58:22;94315.91;;;12.05;100.00
8334;BME280;4204;43.004;23.052;2023-05-14T06:00:50;94304.28;;;11.92;100.00
8334;BME280;4204;43.004;23.052;2023-05-14T06:03:19;94305.66;;;11.90;100.00
8334;BME280;4204;43.004;23.052;2023-05-14T06:05:48;94300.34;;;11.90;100.00
8334;BME280;4204;43.004;23.052;2023-05-14T06:08:16;94302.06;;;11.94;100.00
8334;BME280;4204;43.004;23.052;2023-05-14T06:10:43;94298.78;;;11.58;100.00
8334;BME280;4204;43.004;23.052;2023-05-14T06:13:13;94302.63;;;11.74;100.00
8334;BME280;4204;43.004;23.052;2023-05-14T06:15:41;94299.53;;;11.59;100.00
8334;BME280;4204;43.004;23.052;2023-05-14T06:18:08;94300.28;;;11.73;100.00
8334;BME280;4204;43.004;23.052;2023-05-14T06:20:36;94295.59;;;11.78;100.00
8334;BME280;4204;43.004;23.052;2023-05-14T06:23:05;94298.16;;;11.92;100.00
8334;BME280;4204;43.004;23.052;2023-05-14T06:25:33;94308.84;;;12.00;100.00
8334;BME280;4204;43.004;23.052;2023-05-14T06:28:01;94312.00;;;12.11;100.00
8334;BME280;4204;43.004;23.052;2023-05-14T06:30:30;94312.84;;;12.29;100.00
8334;BME280;4204;43.004;23.052;2023-05-14T06:32:58;94310.94;;;12.29;100.00
8334;BME280;4204;43.004;23.052;2023-05-14T06:35:25;94309.53;;;12.23;100.00
8334;BME280;4204;43.004;23.052;2023-05-14T06:37:53;94308.28;;;12.21;100.00
8334;BME280;4204;43.004;23.052;2023-05-14T06:40:21;94308.91;;;12.26;100.00
8334;BME280;4204;43.004;23.052;2023-05-14T06:42:49;94292.09;;;12.17;100.00
8334;BME280;4204;43.004;23.052;2023-05-14T06:45:17;94300.91;;;12.17;100.00
8334;BME280;4204;43.004;23.052;2023-05-14T06:47:46;94275.81;;;12.18;100.00
8334;BME280;4204;43.004;23.052;2023-05-14T06:50:14;94306.09;;;12.40;100.00
8334;BME280;4204;43.004;23.052;2023-05-14T06:52:42;94304.25;;;12.49;100.00
8334;BME280;4204;43.004;23.052;2023-05-14T06:55:10;94307.69;;;12.41;100.00
8334;BME280;4204;43.004;23.052;2023-05-14T06:57:38;94321.16;;;12.36;100.00
8334;BME280;4204;43.004;23.052;2023-05-14T07:00:07;94313.03;;;12.41;100.00
8334;BME280;4204;43.004;23.052;2023-05-14T07:02:35;94312.50;;;12.22;100.00
8334;BME280;4204;43.004;23.052;2023-05-14T07:05:05;94307.16;;;12.13;100.00
8334;BME280;4204;43.004;23.052;2023-05-14T07:07:33;94304.16;;;12.06;100.00
8334;BME280;4204;43.004;23.052;2023-05-14T07:10:02;94294.28;;;12.06;100.00
8334;BME280;4204;43.004;23.052;2023-05-14T07:12:30;94316.28;;;12.29;100.00
8334;BME280;4204;43.004;23.052;2023-05-14T07:14:58;94317.69;;;12.18;100.00
8334;BME280;4204;43.004;23.052;2023-05-14T07:17:26;94321.16;;;12.27;100.00
8334;BME280;4204;43.004;23.052;2023-05-14T07:19:54;94321.63;;;12.38;100.00
8334;BME280;4204;43.004;23.052;2023-05-14T07:22:24;94323.53;;;12.46;100.00
8334;BME280;4204;43.004;23.052;2023-05-14T07:24:52;94332.94;;;12.35;100.00
8334;BME280;4204;43.004;23.052;2023-05-14T07:27:20;94328.09;;;12.37;100.00
8334;BME280;4204;43.004;23.052;2023-05-14T07:29:49;94312.53;;;12.30;100.00
8334;BME280;4204;43.004;23.052;2023-05-14T07:32:17;94303.41;;;12.31;100.00
8334;BME280;4204;43.004;23.052;2023-05-14T07:34:45;94302.66;;;12.31;100.00
8334;BME280;4204;43.004;23.052;2023-05-14T07:37:14;94294.94;;;12.29;100.00
8334;BME280;4204;43.004;23.052;2023-05-14T07:39:43;94311.47;;;12.48;100.00
8334;BME280;4204;43.004;23.052;2023-05-14T07:42:11;94297.19;;;12.44;100.00
8334;BME280;4204;43.004;23.052;2023-05-14T07:44:39;94309.44;;;12.54;100.00
8334;BME280;4204;43.004;23.052;2023-05-14T07:47:06;94313.34;;;12.56;100.00
8334;BME280;4204;43.004;23.052;2023-05-14T07:49:35;94311.78;;;12.47;100.00
8334;BME280;4204;43.004;23.052;2023-05-14T07:52:03;94316.97;;;12.52;100.00
8334;BME280;4204;43.004;23.052;2023-05-14T07:54:31;94312.09;;;12.62;100.00
8334;BME280;4204;43.004;23.052;2023-05-14T07:57:00;94309.59;;;12.57;100.00
8334;BME280;4204;43.004;23.052;2023-05-14T07:59:28;94318.38;;;12.49;100.00
8334;BME280;4204;43.004;23.052;2023-05-14T08:01:57;94311.47;;;12.48;100.00
8334;BME280;4204;43.004;23.052;2023-05-14T08:04:25;94317.94;;;12.56;100.00
8334;BME280;4204;43.004;23.052;2023-05-14T08:06:54;94316.00;;;12.31;100.00
8334;BME280;4204;43.004;23.052;2023-05-14T08:09:23;94301.50;;;12.06;100.00
8334;BME280;4204;43.004;23.052;2023-05-14T08:11:51;94305.91;;;12.19;100.00
8334;BME280;4204;43.004;23.052;2023-05-14T08:14:20;94308.00;;;12.31;100.00
8334;BME280;4204;43.004;23.052;2023-05-14T08:16:48;94309.34;;;12.11;100.00
8334;BME280;4204;43.004;23.052;2023-05-14T08:19:16;94314.88;;;12.14;100.00
8334;BME280;4204;43.004;23.052;2023-05-14T08:21:47;94303.69;;;12.12;100.00
8334;BME280;4204;43.004;23.052;2023-05-14T08:24:15;94302.00;;;12.16;100.00
8334;BME280;4204;43.004;23.052;2023-05-14T08:26:43;94279.69;;;12.12;100.00
8334;BME280;4204;43.004;23.052;2023-05-14T08:29:11;94270.47;;;12.18;100.00
8334;BME280;4204;43.004;23.052;2023-05-14T08:31:41;94274.25;;;12.26;100.00
8334;BME280;4204;43.004;23.052;2023-05-14T08:34:09;94274.22;;;12.17;100.00
8334;BME280;4204;43.004;23.052;2023-05-14T08:36:37;94278.00;;;12.25;100.00
8334;BME280;4204;43.004;23.052;2023-05-14T08:39:05;94286.47;;;12.10;100.00
8334;BME280;4204;43.004;23.052;2023-05-14T08:41:34;94276.06;;;12.08;100.00
8334;BME280;4204;43.004;23.052;2023-05-14T08:44:05;94284.59;;;12.28;100.00
8334;BME280;4204;43.004;23.052;2023-05-14T08:46:36;94275.50;;;12.29;100.00
8334;BME280;4204;43.004;23.052;2023-05-14T08:49:14;94286.03;;;12.42;100.00
8334;BME280;4204;43.004;23.052;2023-05-14T08:51:45;94289.78;;;12.50;100.00
8334;BME280;4204;43.004;23.052;2023-05-14T08:54:15;94298.91;;;12.49;100.00
8334;BME280;4204;43.004;23.052;2023-05-14T08:56:43;94296.84;;;12.46;100.00
8334;BME280;4204;43.004;23.052;2023-05-14T08:59:12;94300.97;;;12.43;100.00
8334;BME280;4204;43.004;23.052;2023-05-14T09:01:45;94293.72;;;12.52;100.00
8334;BME280;4204;43.004;23.052;2023-05-14T09:04:15;94278.34;;;12.41;100.00
8334;BME280;4204;43.004;23.052;2023-05-14T09:06:47;94287.13;;;12.58;100.00
8334;BME280;4204;43.004;23.052;2023-05-14T09:09:15;94276.63;;;12.53;100.00
8334;BME280;4204;43.004;23.052;2023-05-14T09:11:45;94270.19;;;12.54;100.00
8334;BME280;4204;43.004;23.052;2023-05-14T09:14:13;94267.50;;;12.54;100.00
8334;BME280;4204;43.004;23.052;2023-05-14T09:16:43;94274.91;;;12.57;100.00
8334;BME280;4204;43.004;23.052;2023-05-14T09:19:12;94263.13;;;12.50;100.00
8334;BME280;4204;43.004;23.052;2023-05-14T09:21:44;94254.50;;;12.61;100.00
8334;BME280;4204;43.004;23.052;2023-05-14T09:24:18;94248.06;;;12.71;100.00
8334;BME280;4204;43.004;23.052;2023-05-14T09:26:49;94243.03;;;12.69;100.00
8334;BME280;4204;43.004;23.052;2023-05-14T09:29:18;94249.00;;;12.66;100.00
8334;BME280;4204;43.004;23.052;2023-05-14T09:31:49;94247.44;;;12.74;100.00
8334;BME280;4204;43.004;23.052;2023-05-14T09:34:23;94261.41;;;12.71;100.00
8334;BME280;4204;43.004;23.052;2023-05-14T09:36:55;94251.84;;;12.78;100.00
8334;BME280;4204;43.004;23.052;2023-05-14T09:39:24;94256.53;;;12.81;100.00
8334;BME280;4204;43.004;23.052;2023-05-14T09:41:53;94254.50;;;12.78;100.00
8334;BME280;4204;43.004;23.052;2023-05-14T09:44:22;94256.84;;;12.71;100.00
8334;BME280;4204;43.004;23.052;2023-05-14T09:46:51;94257.19;;;12.78;100.00
8334;BME280;4204;43.004;23.052;2023-05-14T09:49:21;94266.41;;;12.81;100.00
8334;BME280;4204;43.004;23.052;2023-05-14T09:51:49;94263.44;;;12.74;100.00
8334;BME280;4204;43.004;23.052;2023-05-14T09:54:18;94266.91;;;12.66;100.00
8334;BME280;4204;43.004;23.052;2023-05-14T09:56:46;94235.50;;;12.46;100.00
8334;BME280;4204;43.004;23.052;2023-05-14T09:59:14;94259.50;;;12.63;100.00
8334;BME280;4204;43.004;23.052;2023-05-14T10:01:43;94244.94;;;12.52;100.00
8334;BME280;4204;43.004;23.052;2023-05-14T10:04:12;94248.22;;;12.57;100.00
8334;BME280;4204;43.004;23.052;2023-05-14T10:06:41;94247.44;;;12.74;100.00
8334;BME280;4204;43.004;23.052;2023-05-14T10:09:15;94239.44;;;12.82;100.00
8334;BME280;4204;43.004;23.052;2023-05-14T10:11:52;94236.91;;;12.77;100.00
8334;BME280;4204;43.004;23.052;2023-05-14T10:14:31;94198.47;;;12.70;100.00
8334;BME280;4204;43.004;23.052;2023-05-14T10:17:00;94203.63;;;12.66;100.00
8334;BME280;4204;43.004;23.052;2023-05-14T10:19:32;94199.72;;;12.72;100.00
8334;BME280;4204;43.004;23.052;2023-05-14T10:22:04;94200.59;;;12.85;100.00
8334;BME280;4204;43.004;23.052;2023-05-14T10:24:33;94209.75;;;12.84;100.00
8334;BME280;4204;43.004;23.052;2023-05-14T10:27:06;94217.28;;;12.90;100.00
8334;BME280;4204;43.004;23.052;2023-05-14T10:29:36;94224.34;;;12.78;100.00
8334;BME280;4204;43.004;23.052;2023-05-14T10:32:06;94214.91;;;12.89;100.00
8334;BME280;4204;43.004;23.052;2023-05-14T10:34:36;94224.97;;;12.83;100.00
8334;BME280;4204;43.004;23.052;2023-05-14T10:37:07;94240.38;;;12.69;100.00
8334;BME280;4204;43.004;23.052;2023-05-14T10:39:46;94235.66;;;12.66;100.00
8334;BME280;4204;43.004;23.052;2023-05-14T10:42:16;94222.00;;;12.59;100.00
8334;BME280;4204;43.004;23.052;2023-05-14T10:44:52;94219.50;;;12.63;100.00
8334;BME280;4204;43.004;23.052;2023-05-14T10:47:21;94210.06;;;12.57;100.00
8334;BME280;4204;43.004;23.052;2023-05-14T10:49:52;94212.28;;;12.63;100.00
8334;BME280;4204;43.004;23.052;2023-05-14T10:52:21;94211.81;;;12.61;100.00
8334;BME280;4204;43.004;23.052;2023-05-14T10:54:52;94214.75;;;12.68;100.00
8334;BME280;4204;43.004;23.052;2023-05-14T10:57:23;94241.63;;;12.55;100.00
8334;BME280;4204;43.004;23.052;2023-05-14T10:59:55;94241.63;;;12.55;100.00
8334;BME280;4204;43.004;23.052;2023-05-14T11:02:24;94235.69;;;12.58;100.00
8334;BME280;4204;43.004;23.052;2023-05-14T11:04:54;94221.53;;;12.66;100.00
8334;BME280;4204;43.004;23.052;2023-05-14T11:07:27;94218.22;;;12.60;100.00
8334;BME280;4204;43.004;23.052;2023-05-14T11:10:01;94215.72;;;12.72;100.00
8334;BME280;4204;43.004;23.052;2023-05-14T11:12:30;94210.06;;;12.82;100.00
8334;BME280;4204;43.004;23.052;2023-05-14T11:15:01;94202.34;;;12.81;100.00
8334;BME280;4204;43.004;23.052;2023-05-14T11:17:29;94191.72;;;12.64;100.00
8334;BME280;4204;43.004;23.052;2023-05-14T11:19:59;94201.59;;;12.63;100.00
8334;BME280;4204;43.004;23.052;2023-05-14T11:22:27;94208.34;;;12.69;100.00
8334;BME280;4204;43.004;23.052;2023-05-14T11:24:55;94213.22;;;12.67;100.00
8334;BME280;4204;43.004;23.052;2023-05-14T11:27:23;94209.75;;;12.67;100.00
8334;BME280;4204;43.004;23.052;2023-05-14T11:29:53;94203.94;;;12.56;100.00
8334;BME280;4204;43.004;23.052;2023-05-14T11:32:22;94192.03;;;12.54;100.00
8334;BME280;4204;43.004;23.052;2023-05-14T11:34:51;94192.34;;;12.61;100.00
8334;BME280;4204;43.004;23.052;2023-05-14T11:37:19;94186.84;;;12.57;100.00
8334;BME280;4204;43.004;23.052;2023-05-14T11:39:48;94170.03;;;12.65;100.00
8334;BME280;4204;43.004;23.052;2023-05-14T11:42:20;94172.56;;;12.62;100.00
8334;BME280;4204;43.004;23.052;2023-05-14T11:44:50;94170.38;;;12.55;100.00
8334;BME280;4204;43.004;23.052;2023-05-14T11:47:21;94178.06;;;12.65;100.00
8334;BME280;4204;43.004;23.052;2023-05-14T11:49:50;94187.94;;;12.56;100.00
8334;BME280;4204;43.004;23.052;2023-05-14T11:52:18;94190.13;;;12.54;100.00
8334;BME280;4204;43.004;23.052;2023-05-14T11:54:47;94185.13;;;12.53;100.00
8334;BME280;4204;43.004;23.052;2023-05-14T11:57:18;94184.00;;;12.62;100.00
8334;BME280;4204;43.004;23.052;2023-05-14T11:59:48;94178.19;;;12.69;100.00
8334;BME280;4204;43.004;23.052;2023-05-14T12:02:17;94167.84;;;12.59;100.00
8334;BME280;4204;43.004;23.052;2023-05-14T12:04:50;94176.78;;;12.71;100.00
8334;BME280;4204;43.004;23.052;2023-05-14T12:07:18;94173.03;;;12.55;100.00
8334;BME280;4204;43.004;23.052;2023-05-14T12:09:47;94155.16;;;12.56;100.00
8334;BME280;4204;43.004;23.052;2023-05-14T12:12:18;94155.91;;;12.65;100.00
8334;BME280;4204;43.004;23.052;2023-05-14T12:14:47;94151.69;;;12.72;100.00
8334;BME280;4204;43.004;23.052;2023-05-14T12:17:17;94136.41;;;12.81;100.00
8334;BME280;4204;43.004;23.052;2023-05-14T12:19:46;94122.44;;;12.84;100.00
8334;BME280;4204;43.004;23.052;2023-05-14T12:22:18;94120.72;;;12.80;100.00
8334;BME280;4204;43.004;23.052;2023-05-14T12:24:52;94132.75;;;12.94;100.00
8334;BME280;4204;43.004;23.052;2023-05-14T12:27:21;94127.13;;;12.87;100.00
8334;BME280;4204;43.004;23.052;2023-05-14T12:29:50;94128.41;;;12.81;100.00
8334;BME280;4204;43.004;23.052;2023-05-14T12:32:25;94131.25;;;12.76;100.00
8334;BME280;4204;43.004;23.052;2023-05-14T12:34:53;94117.13;;;12.67;100.00
8334;BME280;4204;43.004;23.052;2023-05-14T12:37:23;94092.75;;;12.77;100.00
8334;BME280;4204;43.004;23.052;2023-05-14T12:39:52;94086.34;;;12.78;100.00
8334;BME280;4204;43.004;23.052;2023-05-14T12:42:21;94100.63;;;12.82;100.00
8334;BME280;4204;43.004;23.052;2023-05-14T12:44:51;94095.44;;;12.77;100.00
8334;BME280;4204;43.004;23.052;2023-05-14T12:47:20;94113.97;;;12.82;100.00
8334;BME280;4204;43.004;23.052;2023-05-14T12:49:48;94109.13;;;12.76;100.00
8334;BME280;4204;43.004;23.052;2023-05-14T12:52:16;94107.84;;;12.73;100.00
8334;BME280;4204;43.004;23.052;2023-05-14T12:54:45;94118.28;;;12.95;100.00
8334;BME280;4204;43.004;23.052;2023-05-14T12:57:13;94119.47;;;12.69;100.00
8334;BME280;4204;43.004;23.052;2023-05-14T12:59:41;94121.69;;;12.67;100.00
8334;BME280;4204;43.004;23.052;2023-05-14T13:02:10;94118.09;;;12.54;100.00
8334;BME280;4204;43.004;23.052;2023-05-14T13:04:38;94103.69;;;12.47;100.00
8334;BME280;4204;43.004;23.052;2023-05-14T13:07:06;94118.09;;;12.54;100.00
8334;BME280;4204;43.004;23.052;2023-05-14T13:09:35;94115.25;;;12.68;100.00